• Join FlightAware (Why Join?)
  • Login
  • US Flag 
04:20AM EST


 

Airport Tracker/Info


-or-


 

Live Flight TrackerFlight Track Log ✈ AAL1919 ✈ 29-Apr-2012 ✈ KMEM - KDFW

Flight Track Log - Related Links

Times and Time Zones

All times are in EDT time to prevent confusion due to time zone crossing. See the AAL1919 flight status page for this flight to view local times or setup timezone preferences in your user account.

Time Position Orientation Groundspeed Altitude Reporting Facility
EDT Latitude Longitude Course Direction KTS MPH feet Rate Location/Type
11:43AM 35.0371 -90.0036 129° Southeast  Level FlightAware Approximate
11:44AM 35.0178 -89.9747 187° South 163 188 1,800  Level FAA TRACON SMA TRACON (SMA)
11:44AM 34.9836 -89.9797 212° Southwest 206 237 3,100 2,520 Climbing FAA TRACON SMA TRACON (SMA)
11:45AM 34.9458 -90.0086 254° West 233 268 5,200 3,600 Climbing FAA TRACON SMA TRACON (SMA)
11:46AM 34.9342 -90.0594 276° West 255 293 7,900 3,600 Climbing FAA TRACON SMA TRACON (SMA)
11:46AM 34.9394 -90.1217 265° West 266 306 10,000 2,760 Climbing FAA TRACON SMA TRACON (SMA)
11:47AM 34.9342 -90.1892 265° West 288 331 11,700 2,280 Climbing FAA TRACON SMA TRACON (SMA)
11:48AM 34.9294 -90.2569 266° West 320 368 13,100 2,400 Climbing FAA TRACON SMA TRACON (SMA)
11:48AM 34.9250 -90.3403 266° West 351 404 14,900 3,000 Climbing FAA TRACON SMA TRACON (SMA)
11:49AM 34.9200 -90.4264 265° West 365 420 17,100 2,880 Climbing FAA TRACON SMA TRACON (SMA)
11:50AM 34.9139 -90.5064 266° West 371 427 18,800 2,700 Climbing FAA TRACON SMA TRACON (SMA)
11:50AM 34.9086 -90.5922 265° West 374 430 20,700 2,700 Climbing FAA TRACON SMA TRACON (SMA)
11:51AM 34.9019 -90.6811 265° West 378 435 22,400 1,920 Climbing FAA TRACON SMA TRACON (SMA)
11:52AM 34.8958 -90.7667 261° West 386 444 23,300 1,620 Climbing FAA TRACON SMA TRACON (SMA)
11:52AM 34.8842 -90.8544 260° West 388 447 24,600 1,980 Climbing FAA TRACON SMA TRACON (SMA)
11:53AM 34.8717 -90.9442 259° West 395 455 26,000 1,560 Climbing FAA TRACON SMA TRACON (SMA)
11:54AM 34.8608 -91.0119 260° West 402 463 26,700 1,800 Climbing FAA TRACON SMA TRACON (SMA)
11:55AM 34.8292 -91.2300 260° West 418 481 29,700 1,380 Climbing Memphis Center
11:56AM 34.8092 -91.3689 258° West 423 487 30,000 120 Climbing Memphis Center
11:57AM 34.7853 -91.5050 259° West 423 487 30,000  Level Memphis Center
11:58AM 34.7631 -91.6439 257° West 423 487 30,000  Level Memphis Center
11:59AM 34.7408 -91.7647 260° West 423 487 30,000  Level Memphis Center
12:00PM 34.7203 -91.9061 259° West 423 487 30,000  Level Memphis Center
12:01PM 34.6978 -92.0444 259° West 423 487 30,000  Level Memphis Center
12:02PM 34.6747 -92.1828 253° West 423 487 30,000  Level Memphis Center
12:03PM 34.6394 -92.3186 254° West 423 487 30,000  Level Memphis Center
12:04PM 34.6058 -92.4564 251° West 428 493 30,000  Level Memphis Center
12:05PM 34.5681 -92.5892 252° West 428 493 30,000  Level Memphis Center
12:06PM 34.5322 -92.7244 252° West 428 493 30,000  Level Memphis Center
12:07PM 34.4961 -92.8619 253° West 428 493 30,000  Level Memphis Center
12:08PM 34.4622 -92.9944 252° West 423 487 30,000  Level Memphis Center
12:09PM 34.4236 -93.1344 252° West 423 487 30,000  Level Memphis Center
12:10PM 34.3872 -93.2692 253° West 423 487 30,000  Level Memphis Center
12:11PM 34.3481 -93.4267 251° West 422 486 30,000  Level Fort Worth Center
12:12PM 34.3103 -93.5617 252° West 422 486 30,000  Level Fort Worth Center
12:13PM 34.2747 -93.6964 251° West 428 493 30,000  Level Fort Worth Center
12:14PM 34.2369 -93.8311 251° West 428 493 30,000  Level Fort Worth Center
12:15PM 34.1992 -93.9658 251° West 428 493 30,000  Level Fort Worth Center
12:16PM 34.1628 -94.0903 251° West 428 493 30,000  Level Fort Worth Center
12:17PM 34.1264 -94.2197 252° West 389 448 30,000  Level Fort Worth Center
12:18PM 34.0939 -94.3386 259° West 383 441 30,000  Level Fort Worth Center
12:19PM 34.0739 -94.4597 283° West 378 435 30,000 -60 Level Fort Worth Center
12:20PM 34.0978 -94.5844 287° West 361 415 29,900 -840 Descending Fort Worth Center
12:21PM 34.1275 -94.7014 269° West 367 422 28,400 -1,500 Descending Fort Worth Center
12:22PM 34.1258 -94.8242 245° Southwest 367 422 26,900 -1,500 Descending Fort Worth Center
12:23PM 34.0842 -94.9308 244° Southwest 357 411 25,400 -1,380 Descending Fort Worth Center
12:24PM 34.0422 -95.0347 244° Southwest 350 403 24,200 -720 Descending Fort Worth Center
12:25PM 33.9964 -95.1464 243° Southwest 362 417 24,000 -120 Descending Fort Worth Center
12:26PM 33.9483 -95.2578 242° Southwest 367 422 24,000  Level Fort Worth Center
12:27PM 33.9000 -95.3689 244° Southwest 372 428 24,000  Level Fort Worth Center
12:28PM 33.8539 -95.4803 246° West 372 428 24,000 -120 Level Fort Worth Center
12:29PM 33.8217 -95.5683 244° Southwest 372 428 23,800 -1,020 Descending Fort Worth Center
12:30PM 33.7733 -95.6894 244° Southwest 366 421 22,000 -1,800 Descending Fort Worth Center
12:31PM 33.7289 -95.7975 241° Southwest 366 421 20,200 -1,920 Descending Fort Worth Center
12:32PM 33.6761 -95.9108 243° Southwest 360 414 18,200 -1,800 Descending Fort Worth Center
12:33PM 33.6375 -96.0014 243° Southwest 351 404 16,700 -1,620 Descending Fort Worth Center
12:34PM 33.5906 -96.1117 244° Southwest 345 397 15,000 -1,560 Descending Fort Worth Center
12:35PM 33.5539 -96.2019 230° Southwest 337 388 13,600 -1,500 Descending Fort Worth Center
12:36PM 33.4922 -96.2900 224° Southwest 326 375 12,000 -1,320 Descending Fort Worth Center
12:37PM 33.4383 -96.3531 226° Southwest 302 348 11,000 -540 Descending Fort Worth Center
12:38PM 33.3806 -96.4258 224° Southwest 288 331 11,000 -540 Level Fort Worth Center
12:39PM 33.3331 -96.4811 225° Southwest 276 318 10,000 -1,200 Descending Fort Worth Center
12:40PM 33.2772 -96.5489 260° West 265 305 8,700 -1,200 Descending Fort Worth Center
12:41PM 33.2672 -96.6183 277° West 234 269 7,700 -1,200 Descending Fort Worth Center
12:42PM 33.2739 -96.6831 279° West 218 251 6,400 -900 Descending Fort Worth Center
12:43PM 33.2847 -96.7625 277° West 218 251 6,000 -240 Descending Fort Worth Center
12:44PM 33.2911 -96.8244 244° Southwest 218 251 6,000 -60 Level Fort Worth Center
12:45PM 33.2622 -96.8942 237° Southwest 212 244 5,900 -540 Descending Fort Worth Center
12:46PM 33.2311 -96.9517 241° Southwest 218 251 5,000 -480 Descending Fort Worth Center
12:47PM 33.2064 -97.0039 204° Southwest 195 224 5,000  Level Fort Worth Center
12:48PM 33.1689 -97.0239 189° South 173 199 5,000 -300 Level Fort Worth Center
12:49PM 33.1167 -97.0333 157° South 160 184 4,400 -720 Descending Dallas / Fort Worth TRACON
12:50PM 33.0833 -97.0167 196° South 159 183 3,700 -840 Descending Dallas / Fort Worth TRACON
12:51PM 33.0333 -97.0333 196° South 169 194 2,800 -900 Descending Dallas / Fort Worth TRACON